sensor_id;sensor_type;location;lat;lon;timestamp;temperature;humidity
10889;DHT22;5497;51.388;6.780;2022-07-06T00:01:11;14.10;96.10
10889;DHT22;5497;51.388;6.780;2022-07-06T00:03:38;14.10;96.50
10889;DHT22;5497;51.388;6.780;2022-07-06T00:06:05;14.00;96.10
10889;DHT22;5497;51.388;6.780;2022-07-06T00:08:33;13.90;96.80
10889;DHT22;5497;51.388;6.780;2022-07-06T00:11:00;13.90;96.60
10889;DHT22;5497;51.388;6.780;2022-07-06T00:13:27;15.20;97.60
10889;DHT22;5497;51.388;6.780;2022-07-06T00:15:54;13.00;96.60
10889;DHT22;5497;51.388;6.780;2022-07-06T00:18:21;13.70;96.80
10889;DHT22;5497;51.388;6.780;2022-07-06T00:20:47;13.70;97.50
10889;DHT22;5497;51.388;6.780;2022-07-06T00:23:14;13.70;97.40
10889;DHT22;5497;51.388;6.780;2022-07-06T00:25:42;13.60;97.00
10889;DHT22;5497;51.388;6.780;2022-07-06T00:28:10;13.60;97.50
10889;DHT22;5497;51.388;6.780;2022-07-06T00:30:37;13.50;97.40
10889;DHT22;5497;51.388;6.780;2022-07-06T00:33:04;13.40;97.30
10889;DHT22;5497;51.388;6.780;2022-07-06T00:35:31;13.30;97.30
10889;DHT22;5497;51.388;6.780;2022-07-06T00:37:58;13.30;98.30
10889;DHT22;5497;51.388;6.780;2022-07-06T00:40:25;13.20;98.20
10889;DHT22;5497;51.388;6.780;2022-07-06T00:42:53;13.20;98.10
10889;DHT22;5497;51.388;6.780;2022-07-06T00:45:20;13.10;98.30
10889;DHT22;5497;51.388;6.780;2022-07-06T00:47:47;13.20;99.00
10889;DHT22;5497;51.388;6.780;2022-07-06T00:50:14;13.10;98.40
10889;DHT22;5497;51.388;6.780;2022-07-06T00:52:44;13.10;98.80
10889;DHT22;5497;51.388;6.780;2022-07-06T00:55:12;12.90;99.00
10889;DHT22;5497;51.388;6.780;2022-07-06T00:57:43;12.90;98.80
10889;DHT22;5497;51.388;6.780;2022-07-06T01:00:12;12.90;99.40
10889;DHT22;5497;51.388;6.780;2022-07-06T01:02:39;12.90;99.50
10889;DHT22;5497;51.388;6.780;2022-07-06T01:05:06;12.90;99.80
10889;DHT22;5497;51.388;6.780;2022-07-06T01:07:33;12.90;99.90
10889;DHT22;5497;51.388;6.780;2022-07-06T01:10:01;12.90;99.90
10889;DHT22;5497;51.388;6.780;2022-07-06T01:12:28;12.90;99.90
10889;DHT22;5497;51.388;6.780;2022-07-06T01:14:55;12.90;99.90
10889;DHT22;5497;51.388;6.780;2022-07-06T01:17:23;12.90;99.90
10889;DHT22;5497;51.388;6.780;2022-07-06T01:19:50;14.60;99.90
10889;DHT22;5497;51.388;6.780;2022-07-06T01:22:19;13.00;99.90
10889;DHT22;5497;51.388;6.780;2022-07-06T01:24:45;12.90;99.90
10889;DHT22;5497;51.388;6.780;2022-07-06T01:27:12;12.90;99.90
10889;DHT22;5497;51.388;6.780;2022-07-06T01:29:39;12.90;99.90
10889;DHT22;5497;51.388;6.780;2022-07-06T01:32:06;12.90;99.90
10889;DHT22;5497;51.388;6.780;2022-07-06T01:34:33;12.80;99.90
10889;DHT22;5497;51.388;6.780;2022-07-06T01:37:03;12.70;99.90
10889;DHT22;5497;51.388;6.780;2022-07-06T01:39:31;12.80;99.90
10889;DHT22;5497;51.388;6.780;2022-07-06T01:41:59;12.40;99.90
10889;DHT22;5497;51.388;6.780;2022-07-06T01:44:25;12.80;99.90
10889;DHT22;5497;51.388;6.780;2022-07-06T01:46:52;12.90;99.90
10889;DHT22;5497;51.388;6.780;2022-07-06T01:49:19;12.90;99.90
10889;DHT22;5497;51.388;6.780;2022-07-06T01:51:46;13.00;99.90
10889;DHT22;5497;51.388;6.780;2022-07-06T01:54:13;13.00;99.90
10889;DHT22;5497;51.388;6.780;2022-07-06T01:56:42;13.10;99.90
10889;DHT22;5497;51.388;6.780;2022-07-06T01:59:08;13.20;99.90
10889;DHT22;5497;51.388;6.780;2022-07-06T02:01:36;13.20;99.90
10889;DHT22;5497;51.388;6.780;2022-07-06T02:04:03;13.30;99.90
10889;DHT22;5497;51.388;6.780;2022-07-06T02:06:30;13.40;99.90
10889;DHT22;5497;51.388;6.780;2022-07-06T02:08:57;13.40;99.90
10889;DHT22;5497;51.388;6.780;2022-07-06T02:11:25;13.40;99.90
10889;DHT22;5497;51.388;6.780;2022-07-06T02:13:53;13.40;99.90
10889;DHT22;5497;51.388;6.780;2022-07-06T02:16:20;13.40;99.90
10889;DHT22;5497;51.388;6.780;2022-07-06T02:18:47;13.20;99.90
10889;DHT22;5497;51.388;6.780;2022-07-06T02:21:14;13.30;99.90
10889;DHT22;5497;51.388;6.780;2022-07-06T02:23:41;13.30;99.90
10889;DHT22;5497;51.388;6.780;2022-07-06T02:26:07;13.20;99.90
10889;DHT22;5497;51.388;6.780;2022-07-06T02:28:34;13.20;99.90
10889;DHT22;5497;51.388;6.780;2022-07-06T02:31:03;13.10;99.90
10889;DHT22;5497;51.388;6.780;2022-07-06T02:33:30;15.00;99.90
10889;DHT22;5497;51.388;6.780;2022-07-06T02:35:57;13.00;99.90
10889;DHT22;5497;51.388;6.780;2022-07-06T02:38:24;12.90;99.90
10889;DHT22;5497;51.388;6.780;2022-07-06T02:40:51;12.90;99.90
10889;DHT22;5497;51.388;6.780;2022-07-06T02:43:18;13.80;99.90
10889;DHT22;5497;51.388;6.780;2022-07-06T02:45:44;12.90;99.90
10889;DHT22;5497;51.388;6.780;2022-07-06T02:48:13;12.90;99.90
10889;DHT22;5497;51.388;6.780;2022-07-06T02:50:40;12.90;99.90
10889;DHT22;5497;51.388;6.780;2022-07-06T02:53:07;12.80;99.90
10889;DHT22;5497;51.388;6.780;2022-07-06T02:55:33;12.60;99.90
10889;DHT22;5497;51.388;6.780;2022-07-06T02:58:01;12.60;99.90
10889;DHT22;5497;51.388;6.780;2022-07-06T03:00:30;12.60;99.90
10889;DHT22;5497;51.388;6.780;2022-07-06T03:02:57;12.50;99.90
10889;DHT22;5497;51.388;6.780;2022-07-06T03:05:25;12.40;99.90
10889;DHT22;5497;51.388;6.780;2022-07-06T03:07:53;12.40;99.90
10889;DHT22;5497;51.388;6.780;2022-07-06T03:10:21;12.40;99.90
10889;DHT22;5497;51.388;6.780;2022-07-06T03:12:47;12.30;99.90
10889;DHT22;5497;51.388;6.780;2022-07-06T03:15:15;12.20;99.90
10889;DHT22;5497;51.388;6.780;2022-07-06T03:17:44;12.10;99.90
10889;DHT22;5497;51.388;6.780;2022-07-06T03:20:13;12.20;99.90
10889;DHT22;5497;51.388;6.780;2022-07-06T03:22:42;12.20;99.90
10889;DHT22;5497;51.388;6.780;2022-07-06T03:25:10;12.10;99.90
10889;DHT22;5497;51.388;6.780;2022-07-06T03:27:39;12.10;99.90
10889;DHT22;5497;51.388;6.780;2022-07-06T03:30:07;12.10;99.90
10889;DHT22;5497;51.388;6.780;2022-07-06T03:32:38;12.10;99.90
10889;DHT22;5497;51.388;6.780;2022-07-06T03:35:06;12.00;99.90
10889;DHT22;5497;51.388;6.780;2022-07-06T03:40:02;11.90;99.90
10889;DHT22;5497;51.388;6.780;2022-07-06T03:42:29;11.90;99.90
10889;DHT22;5497;51.388;6.780;2022-07-06T03:45:11;11.90;99.90
10889;DHT22;5497;51.388;6.780;2022-07-06T03:47:48;11.90;99.90
10889;DHT22;5497;51.388;6.780;2022-07-06T03:50:17;11.90;99.90
10889;DHT22;5497;51.388;6.780;2022-07-06T03:52:57;11.90;99.90
10889;DHT22;5497;51.388;6.780;2022-07-06T03:55:26;12.00;99.90
10889;DHT22;5497;51.388;6.780;2022-07-06T03:57:57;12.00;99.90
10889;DHT22;5497;51.388;6.780;2022-07-06T04:00:29;12.10;99.90
10889;DHT22;5497;51.388;6.780;2022-07-06T04:03:16;12.10;99.90
10889;DHT22;5497;51.388;6.780;2022-07-06T04:05:47;12.00;99.90
10889;DHT22;5497;51.388;6.780;2022-07-06T04:08:31;12.30;99.90
10889;DHT22;5497;51.388;6.780;2022-07-06T04:11:10;12.30;99.90
10889;DHT22;5497;51.388;6.780;2022-07-06T04:13:41;12.40;99.90
10889;DHT22;5497;51.388;6.780;2022-07-06T04:16:13;12.50;99.90
10889;DHT22;5497;51.388;6.780;2022-07-06T04:18:42;12.60;99.90
10889;DHT22;5497;51.388;6.780;2022-07-06T04:21:10;12.60;99.90
10889;DHT22;5497;51.388;6.780;2022-07-06T04:23:49;12.70;99.90
10889;DHT22;5497;51.388;6.780;2022-07-06T04:26:17;12.80;99.90
10889;DHT22;5497;51.388;6.780;2022-07-06T04:28:44;12.90;99.90
10889;DHT22;5497;51.388;6.780;2022-07-06T04:31:21;13.10;99.90
10889;DHT22;5497;51.388;6.780;2022-07-06T04:33:49;13.10;99.90
10889;DHT22;5497;51.388;6.780;2022-07-06T04:36:17;13.40;99.90
10889;DHT22;5497;51.388;6.780;2022-07-06T04:38:45;13.50;99.90
10889;DHT22;5497;51.388;6.780;2022-07-06T04:41:22;13.60;99.90
10889;DHT22;5497;51.388;6.780;2022-07-06T04:43:58;13.80;99.90
10889;DHT22;5497;51.388;6.780;2022-07-06T04:46:28;14.00;99.90
10889;DHT22;5497;51.388;6.780;2022-07-06T04:49:09;14.20;99.90
10889;DHT22;5497;51.388;6.780;2022-07-06T04:51:38;14.30;99.90
10889;DHT22;5497;51.388;6.780;2022-07-06T04:54:18;12.40;99.90
10889;DHT22;5497;51.388;6.780;2022-07-06T04:59:32;15.00;99.90
10889;DHT22;5497;51.388;6.780;2022-07-06T05:02:15;15.20;99.90
10889;DHT22;5497;51.388;6.780;2022-07-06T05:04:45;15.30;99.90
10889;DHT22;5497;51.388;6.780;2022-07-06T05:07:12;15.40;99.90
10889;DHT22;5497;51.388;6.780;2022-07-06T05:09:47;15.50;99.90
10889;DHT22;5497;51.388;6.780;2022-07-06T05:12:30;15.60;99.90
10889;DHT22;5497;51.388;6.780;2022-07-06T05:15:11;15.80;99.90
10889;DHT22;5497;51.388;6.780;2022-07-06T05:17:38;15.90;99.90
10889;DHT22;5497;51.388;6.780;2022-07-06T05:20:07;16.00;99.90
10889;DHT22;5497;51.388;6.780;2022-07-06T05:22:40;16.00;99.90
10889;DHT22;5497;51.388;6.780;2022-07-06T05:25:11;16.10;99.90
10889;DHT22;5497;51.388;6.780;2022-07-06T05:27:46;16.20;99.90
10889;DHT22;5497;51.388;6.780;2022-07-06T05:30:16;16.30;99.90
10889;DHT22;5497;51.388;6.780;2022-07-06T05:32:43;16.30;99.90
10889;DHT22;5497;51.388;6.780;2022-07-06T05:37:46;16.50;99.90
10889;DHT22;5497;51.388;6.780;2022-07-06T05:40:18;16.60;99.90
10889;DHT22;5497;51.388;6.780;2022-07-06T05:42:45;16.60;99.90
10889;DHT22;5497;51.388;6.780;2022-07-06T05:45:12;16.90;99.90
10889;DHT22;5497;51.388;6.780;2022-07-06T05:47:53;17.10;99.90
10889;DHT22;5497;51.388;6.780;2022-07-06T05:50:46;17.20;99.90
10889;DHT22;5497;51.388;6.780;2022-07-06T05:53:16;17.40;99.90
10889;DHT22;5497;51.388;6.780;2022-07-06T05:55:52;17.60;99.90
10889;DHT22;5497;51.388;6.780;2022-07-06T05:58:26;17.60;99.90
10889;DHT22;5497;51.388;6.780;2022-07-06T06:01:17;17.80;99.90
10889;DHT22;5497;51.388;6.780;2022-07-06T06:03:57;18.20;99.90
10889;DHT22;5497;51.388;6.780;2022-07-06T06:09:02;18.70;99.90
10889;DHT22;5497;51.388;6.780;2022-07-06T06:11:32;18.80;99.90
10889;DHT22;5497;51.388;6.780;2022-07-06T06:14:01;19.00;99.90
10889;DHT22;5497;51.388;6.780;2022-07-06T06:19:40;19.30;99.90
10889;DHT22;5497;51.388;6.780;2022-07-06T06:22:07;19.40;99.90
10889;DHT22;5497;51.388;6.780;2022-07-06T06:24:58;19.50;99.90
10889;DHT22;5497;51.388;6.780;2022-07-06T06:27:31;19.50;99.90
10889;DHT22;5497;51.388;6.780;2022-07-06T06:29:58;19.60;99.90
10889;DHT22;5497;51.388;6.780;2022-07-06T06:32:27;19.70;99.90
10889;DHT22;5497;51.388;6.780;2022-07-06T06:34:56;19.70;99.90
10889;DHT22;5497;51.388;6.780;2022-07-06T06:37:29;19.80;99.90
10889;DHT22;5497;51.388;6.780;2022-07-06T06:39:57;19.90;99.90
10889;DHT22;5497;51.388;6.780;2022-07-06T06:42:25;19.80;99.90
10889;DHT22;5497;51.388;6.780;2022-07-06T06:45:05;19.90;99.90
10889;DHT22;5497;51.388;6.780;2022-07-06T06:47:47;19.90;99.90
10889;DHT22;5497;51.388;6.780;2022-07-06T06:50:18;20.00;99.90
10889;DHT22;5497;51.388;6.780;2022-07-06T06:52:44;20.10;99.90
10889;DHT22;5497;51.388;6.780;2022-07-06T06:55:11;20.20;99.90
10889;DHT22;5497;51.388;6.780;2022-07-06T06:57:38;20.20;99.90
10889;DHT22;5497;51.388;6.780;2022-07-06T07:00:05;20.20;99.90
10889;DHT22;5497;51.388;6.780;2022-07-06T07:02:35;20.40;99.90
10889;DHT22;5497;51.388;6.780;2022-07-06T07:05:31;20.50;99.90
10889;DHT22;5497;51.388;6.780;2022-07-06T07:08:20;20.60;99.90
10889;DHT22;5497;51.388;6.780;2022-07-06T07:10:47;20.60;99.90
10889;DHT22;5497;51.388;6.780;2022-07-06T07:13:16;20.60;99.90
10889;DHT22;5497;51.388;6.780;2022-07-06T07:15:52;20.90;99.90
10889;DHT22;5497;51.388;6.780;2022-07-06T07:18:34;21.20;99.90
10889;DHT22;5497;51.388;6.780;2022-07-06T07:21:15;21.30;99.90
10889;DHT22;5497;51.388;6.780;2022-07-06T07:23:42;21.70;99.90
10889;DHT22;5497;51.388;6.780;2022-07-06T07:26:09;22.10;99.90
10889;DHT22;5497;51.388;6.780;2022-07-06T07:28:36;22.10;99.90
10889;DHT22;5497;51.388;6.780;2022-07-06T07:31:03;22.30;99.90
10889;DHT22;5497;51.388;6.780;2022-07-06T07:33:34;22.30;99.90
10889;DHT22;5497;51.388;6.780;2022-07-06T07:36:05;22.30;99.90
10889;DHT22;5497;51.388;6.780;2022-07-06T07:41:07;22.50;99.90
10889;DHT22;5497;51.388;6.780;2022-07-06T07:43:36;22.70;99.90
10889;DHT22;5497;51.388;6.780;2022-07-06T07:46:03;23.00;99.90
10889;DHT22;5497;51.388;6.780;2022-07-06T07:48:34;23.20;99.90
10889;DHT22;5497;51.388;6.780;2022-07-06T07:51:11;23.20;99.90
10889;DHT22;5497;51.388;6.780;2022-07-06T07:53:43;23.40;99.90
10889;DHT22;5497;51.388;6.780;2022-07-06T07:56:11;24.10;99.90
10889;DHT22;5497;51.388;6.780;2022-07-06T07:58:41;24.20;99.90
10889;DHT22;5497;51.388;6.780;2022-07-06T08:01:19;24.90;99.00
10889;DHT22;5497;51.388;6.780;2022-07-06T08:03:55;25.20;99.20
10889;DHT22;5497;51.388;6.780;2022-07-06T08:06:23;25.40;98.80
10889;DHT22;5497;51.388;6.780;2022-07-06T08:08:49;25.40;97.30
10889;DHT22;5497;51.388;6.780;2022-07-06T08:13:45;25.50;96.70
10889;DHT22;5497;51.388;6.780;2022-07-06T08:16:12;25.50;96.80
10889;DHT22;5497;51.388;6.780;2022-07-06T08:18:38;25.50;95.00
10889;DHT22;5497;51.388;6.780;2022-07-06T08:21:13;25.30;94.10
10889;DHT22;5497;51.388;6.780;2022-07-06T08:23:46;25.10;95.10
10889;DHT22;5497;51.388;6.780;2022-07-06T08:26:15;25.30;96.10
10889;DHT22;5497;51.388;6.780;2022-07-06T08:28:42;25.40;95.20
10889;DHT22;5497;51.388;6.780;2022-07-06T08:31:15;26.80;93.90
10889;DHT22;5497;51.388;6.780;2022-07-06T08:33:48;26.90;93.40
10889;DHT22;5497;51.388;6.780;2022-07-06T08:36:17;27.60;92.50
10889;DHT22;5497;51.388;6.780;2022-07-06T08:38:47;27.70;92.30
10889;DHT22;5497;51.388;6.780;2022-07-06T08:41:15;27.70;89.20
10889;DHT22;5497;51.388;6.780;2022-07-06T08:43:41;27.70;88.20
10889;DHT22;5497;51.388;6.780;2022-07-06T08:46:10;27.30;88.80
10889;DHT22;5497;51.388;6.780;2022-07-06T08:48:40;27.10;85.70
10889;DHT22;5497;51.388;6.780;2022-07-06T08:51:08;26.80;86.10
10889;DHT22;5497;51.388;6.780;2022-07-06T08:53:34;26.50;85.00
10889;DHT22;5497;51.388;6.780;2022-07-06T08:56:01;26.10;86.40
10889;DHT22;5497;51.388;6.780;2022-07-06T08:58:29;26.10;84.60
10889;DHT22;5497;51.388;6.780;2022-07-06T09:00:57;26.50;83.40
10889;DHT22;5497;51.388;6.780;2022-07-06T09:03:24;26.40;83.30
10889;DHT22;5497;51.388;6.780;2022-07-06T09:05:52;26.10;84.10
10889;DHT22;5497;51.388;6.780;2022-07-06T09:08:22;26.10;83.00
10889;DHT22;5497;51.388;6.780;2022-07-06T09:10:50;25.90;81.60
10889;DHT22;5497;51.388;6.780;2022-07-06T09:13:17;25.60;82.20
10889;DHT22;5497;51.388;6.780;2022-07-06T09:15:44;24.80;81.10
10889;DHT22;5497;51.388;6.780;2022-07-06T09:18:11;24.70;81.00
10889;DHT22;5497;51.388;6.780;2022-07-06T09:20:38;24.70;80.90
10889;DHT22;5497;51.388;6.780;2022-07-06T09:23:08;25.00;82.10
10889;DHT22;5497;51.388;6.780;2022-07-06T09:25:35;25.30;82.50
10889;DHT22;5497;51.388;6.780;2022-07-06T09:28:12;25.60;80.90
10889;DHT22;5497;51.388;6.780;2022-07-06T09:30:54;25.60;81.30
10889;DHT22;5497;51.388;6.780;2022-07-06T09:33:24;25.30;81.10
10889;DHT22;5497;51.388;6.780;2022-07-06T09:35:51;25.10;78.80
10889;DHT22;5497;51.388;6.780;2022-07-06T09:38:21;24.90;77.70
10889;DHT22;5497;51.388;6.780;2022-07-06T09:40:52;24.80;80.00
10889;DHT22;5497;51.388;6.780;2022-07-06T09:43:20;24.70;79.40
10889;DHT22;5497;51.388;6.780;2022-07-06T09:45:48;25.50;79.40
10889;DHT22;5497;51.388;6.780;2022-07-06T09:48:16;25.60;79.00
10889;DHT22;5497;51.388;6.780;2022-07-06T09:50:50;26.50;79.20
10889;DHT22;5497;51.388;6.780;2022-07-06T09:53:18;26.60;78.60
10889;DHT22;5497;51.388;6.780;2022-07-06T09:55:50;27.00;74.20
10889;DHT22;5497;51.388;6.780;2022-07-06T09:58:26;27.10;73.10
10889;DHT22;5497;51.388;6.780;2022-07-06T10:00:53;27.40;75.20
10889;DHT22;5497;51.388;6.780;2022-07-06T10:03:20;27.70;73.60
10889;DHT22;5497;51.388;6.780;2022-07-06T10:05:51;27.70;73.20
10889;DHT22;5497;51.388;6.780;2022-07-06T10:08:18;27.70;71.70
10889;DHT22;5497;51.388;6.780;2022-07-06T10:10:46;27.20;69.60
10889;DHT22;5497;51.388;6.780;2022-07-06T10:13:16;27.20;69.90
10889;DHT22;5497;51.388;6.780;2022-07-06T10:15:47;26.60;71.50
10889;DHT22;5497;51.388;6.780;2022-07-06T10:18:14;26.40;70.20
10889;DHT22;5497;51.388;6.780;2022-07-06T10:20:41;26.40;71.40
10889;DHT22;5497;51.388;6.780;2022-07-06T10:23:08;26.40;71.90
10889;DHT22;5497;51.388;6.780;2022-07-06T10:25:35;26.30;71.10
10889;DHT22;5497;51.388;6.780;2022-07-06T10:28:02;26.30;70.00
10889;DHT22;5497;51.388;6.780;2022-07-06T10:30:38;24.00;69.20
10889;DHT22;5497;51.388;6.780;2022-07-06T10:33:08;25.60;70.40
10889;DHT22;5497;51.388;6.780;2022-07-06T10:35:35;25.70;72.30
10889;DHT22;5497;51.388;6.780;2022-07-06T10:38:06;25.70;71.40
10889;DHT22;5497;51.388;6.780;2022-07-06T10:40:33;25.70;71.20
10889;DHT22;5497;51.388;6.780;2022-07-06T10:43:18;25.80;71.60
10889;DHT22;5497;51.388;6.780;2022-07-06T10:45:54;26.00;73.20
10889;DHT22;5497;51.388;6.780;2022-07-06T10:48:25;26.00;72.30
10889;DHT22;5497;51.388;6.780;2022-07-06T10:51:00;26.30;72.30
10889;DHT22;5497;51.388;6.780;2022-07-06T10:53:36;26.80;72.10
10889;DHT22;5497;51.388;6.780;2022-07-06T10:56:07;27.30;72.00
10889;DHT22;5497;51.388;6.780;2022-07-06T10:58:45;27.60;70.50
10889;DHT22;5497;51.388;6.780;2022-07-06T11:04:23;27.70;69.90
10889;DHT22;5497;51.388;6.780;2022-07-06T11:07:24;27.60;69.00
10889;DHT22;5497;51.388;6.780;2022-07-06T11:09:55;27.60;68.00
10889;DHT22;5497;51.388;6.780;2022-07-06T11:12:22;27.10;68.40
10889;DHT22;5497;51.388;6.780;2022-07-06T11:14:51;27.10;67.90
10889;DHT22;5497;51.388;6.780;2022-07-06T11:17:28;27.00;68.90
10889;DHT22;5497;51.388;6.780;2022-07-06T11:19:57;26.80;69.30
10889;DHT22;5497;51.388;6.780;2022-07-06T11:22:24;26.70;69.90
10889;DHT22;5497;51.388;6.780;2022-07-06T11:24:51;26.70;69.60
10889;DHT22;5497;51.388;6.780;2022-07-06T11:27:18;26.80;70.40
10889;DHT22;5497;51.388;6.780;2022-07-06T11:29:45;26.80;69.40
10889;DHT22;5497;51.388;6.780;2022-07-06T11:32:30;26.90;69.90
10889;DHT22;5497;51.388;6.780;2022-07-06T11:35:05;26.90;68.90
10889;DHT22;5497;51.388;6.780;2022-07-06T11:37:39;26.80;69.40
10889;DHT22;5497;51.388;6.780;2022-07-06T11:40:12;26.50;69.50
10889;DHT22;5497;51.388;6.780;2022-07-06T11:42:39;26.50;69.30
10889;DHT22;5497;51.388;6.780;2022-07-06T11:45:06;26.30;69.10
10889;DHT22;5497;51.388;6.780;2022-07-06T11:47:33;26.10;69.50
10889;DHT22;5497;51.388;6.780;2022-07-06T11:50:05;25.80;70.10
10889;DHT22;5497;51.388;6.780;2022-07-06T11:55:13;25.60;70.30
10889;DHT22;5497;51.388;6.780;2022-07-06T11:57:40;25.50;71.30
10889;DHT22;5497;51.388;6.780;2022-07-06T12:00:08;25.40;71.90
10889;DHT22;5497;51.388;6.780;2022-07-06T12:02:39;25.50;72.30
10889;DHT22;5497;51.388;6.780;2022-07-06T12:05:08;25.50;72.10
10889;DHT22;5497;51.388;6.780;2022-07-06T12:07:35;25.50;72.50
10889;DHT22;5497;51.388;6.780;2022-07-06T12:10:02;25.60;71.90
10889;DHT22;5497;51.388;6.780;2022-07-06T12:12:29;25.50;71.60
10889;DHT22;5497;51.388;6.780;2022-07-06T12:14:57;25.40;71.90
10889;DHT22;5497;51.388;6.780;2022-07-06T12:17:24;25.30;72.30
10889;DHT22;5497;51.388;6.780;2022-07-06T12:19:52;25.10;72.00
10889;DHT22;5497;51.388;6.780;2022-07-06T12:22:25;25.10;72.70
10889;DHT22;5497;51.388;6.780;2022-07-06T12:24:52;25.00;72.70
10889;DHT22;5497;51.388;6.780;2022-07-06T12:27:19;25.10;72.70
10889;DHT22;5497;51.388;6.780;2022-07-06T12:29:47;25.40;72.90
10889;DHT22;5497;51.388;6.780;2022-07-06T12:32:14;25.80;72.60
10889;DHT22;5497;51.388;6.780;2022-07-06T12:34:41;26.00;71.90
10889;DHT22;5497;51.388;6.780;2022-07-06T12:37:10;26.10;71.60
10889;DHT22;5497;51.388;6.780;2022-07-06T12:39:41;26.10;70.90
10889;DHT22;5497;51.388;6.780;2022-07-06T12:42:09;26.00;71.30
10889;DHT22;5497;51.388;6.780;2022-07-06T12:44:41;25.90;71.30
10889;DHT22;5497;51.388;6.780;2022-07-06T12:47:09;25.80;71.60
10889;DHT22;5497;51.388;6.780;2022-07-06T12:49:38;25.60;71.30
10889;DHT22;5497;51.388;6.780;2022-07-06T12:52:09;25.50;71.60
10889;DHT22;5497;51.388;6.780;2022-07-06T12:54:37;25.30;71.20
10889;DHT22;5497;51.388;6.780;2022-07-06T12:57:12;25.30;72.00
10889;DHT22;5497;51.388;6.780;2022-07-06T12:59:41;24.20;70.30
10889;DHT22;5497;51.388;6.780;2022-07-06T13:02:09;25.40;72.40
10889;DHT22;5497;51.388;6.780;2022-07-06T13:04:36;25.30;71.80
10889;DHT22;5497;51.388;6.780;2022-07-06T13:07:04;25.40;72.00
10889;DHT22;5497;51.388;6.780;2022-07-06T13:09:31;25.40;72.50
10889;DHT22;5497;51.388;6.780;2022-07-06T13:12:01;25.20;73.20
10889;DHT22;5497;51.388;6.780;2022-07-06T13:14:29;25.80;72.50
10889;DHT22;5497;51.388;6.780;2022-07-06T13:16:56;25.70;71.50
10889;DHT22;5497;51.388;6.780;2022-07-06T13:19:23;25.80;71.90
10889;DHT22;5497;51.388;6.780;2022-07-06T13:21:53;25.90;71.90
10889;DHT22;5497;51.388;6.780;2022-07-06T13:24:20;26.10;71.80
10889;DHT22;5497;51.388;6.780;2022-07-06T13:26:47;26.40;70.60
10889;DHT22;5497;51.388;6.780;2022-07-06T13:29:14;26.90;70.00
10889;DHT22;5497;51.388;6.780;2022-07-06T13:31:42;27.10;70.10
10889;DHT22;5497;51.388;6.780;2022-07-06T13:34:09;27.30;68.90
10889;DHT22;5497;51.388;6.780;2022-07-06T13:36:36;27.30;68.30
10889;DHT22;5497;51.388;6.780;2022-07-06T13:39:03;27.20;67.70
10889;DHT22;5497;51.388;6.780;2022-07-06T13:41:30;27.20;67.80
10889;DHT22;5497;51.388;6.780;2022-07-06T13:43:57;27.50;68.20
10889;DHT22;5497;51.388;6.780;2022-07-06T13:46:25;27.70;67.30
10889;DHT22;5497;51.388;6.780;2022-07-06T13:48:54;28.00;65.90
10889;DHT22;5497;51.388;6.780;2022-07-06T13:51:22;28.00;65.40
10889;DHT22;5497;51.388;6.780;2022-07-06T13:53:49;28.20;66.10
10889;DHT22;5497;51.388;6.780;2022-07-06T13:56:16;28.30;65.60
10889;DHT22;5497;51.388;6.780;2022-07-06T13:58:43;28.10;65.60
10889;DHT22;5497;51.388;6.780;2022-07-06T14:01:11;28.00;65.50
10889;DHT22;5497;51.388;6.780;2022-07-06T14:03:38;27.60;65.20
10889;DHT22;5497;51.388;6.780;2022-07-06T14:06:07;27.60;66.60
10889;DHT22;5497;51.388;6.780;2022-07-06T14:08:35;27.10;65.90
10889;DHT22;5497;51.388;6.780;2022-07-06T14:11:02;27.00;66.40
10889;DHT22;5497;51.388;6.780;2022-07-06T14:13:30;26.80;66.60
10889;DHT22;5497;51.388;6.780;2022-07-06T14:15:57;26.90;66.90
10889;DHT22;5497;51.388;6.780;2022-07-06T14:18:26;27.30;68.20
10889;DHT22;5497;51.388;6.780;2022-07-06T14:20:54;27.60;66.90
10889;DHT22;5497;51.388;6.780;2022-07-06T14:23:22;27.70;65.40
10889;DHT22;5497;51.388;6.780;2022-07-06T14:25:49;27.30;64.40
10889;DHT22;5497;51.388;6.780;2022-07-06T14:28:17;26.80;65.40
10889;DHT22;5497;51.388;6.780;2022-07-06T14:30:44;26.40;66.60
10889;DHT22;5497;51.388;6.780;2022-07-06T14:33:11;26.20;66.70
10889;DHT22;5497;51.388;6.780;2022-07-06T14:35:39;26.30;66.80
10889;DHT22;5497;51.388;6.780;2022-07-06T14:38:06;26.50;66.50
10889;DHT22;5497;51.388;6.780;2022-07-06T14:40:35;26.70;66.40
10889;DHT22;5497;51.388;6.780;2022-07-06T14:43:03;26.80;65.80
10889;DHT22;5497;51.388;6.780;2022-07-06T14:45:31;27.10;66.70
10889;DHT22;5497;51.388;6.780;2022-07-06T14:47:58;27.20;65.20
10889;DHT22;5497;51.388;6.780;2022-07-06T14:50:25;27.20;65.50
10889;DHT22;5497;51.388;6.780;2022-07-06T14:52:52;27.20;65.10
10889;DHT22;5497;51.388;6.780;2022-07-06T14:55:19;27.20;65.10
10889;DHT22;5497;51.388;6.780;2022-07-06T14:57:48;27.00;64.10
10889;DHT22;5497;51.388;6.780;2022-07-06T15:00:15;27.00;64.60
10889;DHT22;5497;51.388;6.780;2022-07-06T15:02:42;26.80;65.20
10889;DHT22;5497;51.388;6.780;2022-07-06T15:05:09;26.80;65.80
10889;DHT22;5497;51.388;6.780;2022-07-06T15:07:36;27.00;65.50
10889;DHT22;5497;51.388;6.780;2022-07-06T15:10:03;27.10;65.10
10889;DHT22;5497;51.388;6.780;2022-07-06T15:12:30;27.00;65.10
10889;DHT22;5497;51.388;6.780;2022-07-06T15:14:58;26.80;65.40
10889;DHT22;5497;51.388;6.780;2022-07-06T15:17:26;26.50;65.70
10889;DHT22;5497;51.388;6.780;2022-07-06T15:19:54;26.50;66.20
10889;DHT22;5497;51.388;6.780;2022-07-06T15:22:21;26.60;66.60
10889;DHT22;5497;51.388;6.780;2022-07-06T15:24:48;26.70;66.70
10889;DHT22;5497;51.388;6.780;2022-07-06T15:27:15;26.90;66.60
10889;DHT22;5497;51.388;6.780;2022-07-06T15:29:42;27.20;66.00
10889;DHT22;5497;51.388;6.780;2022-07-06T15:32:10;27.20;65.80
10889;DHT22;5497;51.388;6.780;2022-07-06T15:34:37;27.20;65.20
10889;DHT22;5497;51.388;6.780;2022-07-06T15:37:04;27.10;65.30
10889;DHT22;5497;51.388;6.780;2022-07-06T15:39:31;26.90;65.20
10889;DHT22;5497;51.388;6.780;2022-07-06T15:42:01;26.80;66.30
10889;DHT22;5497;51.388;6.780;2022-07-06T15:44:29;26.80;67.10
10889;DHT22;5497;51.388;6.780;2022-07-06T15:49:35;26.90;65.40
10889;DHT22;5497;51.388;6.780;2022-07-06T15:52:09;26.90;65.40
10889;DHT22;5497;51.388;6.780;2022-07-06T15:54:40;26.80;65.50
10889;DHT22;5497;51.388;6.780;2022-07-06T15:57:11;26.70;65.70
10889;DHT22;5497;51.388;6.780;2022-07-06T16:00:01;26.70;66.00
10889;DHT22;5497;51.388;6.780;2022-07-06T16:02:37;26.70;66.00
10889;DHT22;5497;51.388;6.780;2022-07-06T16:05:08;26.60;66.00
10889;DHT22;5497;51.388;6.780;2022-07-06T16:07:52;26.60;66.40
10889;DHT22;5497;51.388;6.780;2022-07-06T16:10:26;26.50;66.30
10889;DHT22;5497;51.388;6.780;2022-07-06T16:13:00;26.20;66.20
10889;DHT22;5497;51.388;6.780;2022-07-06T16:15:31;26.10;66.50
10889;DHT22;5497;51.388;6.780;2022-07-06T16:18:05;25.90;66.70
10889;DHT22;5497;51.388;6.780;2022-07-06T16:20:35;25.70;67.20
10889;DHT22;5497;51.388;6.780;2022-07-06T16:23:18;25.70;67.20
10889;DHT22;5497;51.388;6.780;2022-07-06T16:25:53;25.20;67.60
10889;DHT22;5497;51.388;6.780;2022-07-06T16:28:45;25.60;68.00